Time;durP1;ratioP1;P1;durP2;ratioP2;P2;SDS_P1;SDS_P2;PMS_P1;PMS_P2;Temp;Humidity;BMP_temperature;BMP_pressure;BME280_temperature;BME280_humidity;BME280_pressure;Samples;Min_cycle;Max_cycle;Signal;HPM_P1;HPM_P2
2021/06/25 00:01:12;;;;;;;10.82;6.37;;;;;;;21.70;77.10;100568.67;1569713;91;28306;-78
2021/06/25 00:03:39;;;;;;;10.63;6.37;;;;;;;21.72;77.10;100577.41;1546004;91;25370;-77
2021/06/25 00:06:06;;;;;;;10.15;6.33;;;;;;;21.74;77.22;100579.34;1528036;91;25872;-77
2021/06/25 00:08:33;;;;;;;12.43;6.28;;;;;;;21.76;77.21;100578.53;1527786;91;25927;-77
2021/06/25 00:11:00;;;;;;;15.08;7.78;;;;;;;21.76;77.04;100579.06;1569549;91;25837;-76
2021/06/25 00:13:27;;;;;;;11.30;6.55;;;;;;;21.77;77.08;100568.45;1545249;91;27592;-77
2021/06/25 00:15:54;;;;;;;12.80;6.50;;;;;;;21.77;77.04;100563.00;1549014;91;26660;-78
2021/06/25 00:18:21;;;;;;;16.07;7.47;;;;;;;21.77;77.08;100560.28;1527589;91;26225;-76
2021/06/25 00:20:48;;;;;;;14.00;6.95;;;;;;;21.78;76.97;100563.27;1544330;92;26540;-77
2021/06/25 00:23:15;;;;;;;17.25;6.87;;;;;;;21.78;76.99;100560.01;1525814;91;25467;-77
2021/06/25 00:25:42;;;;;;;10.65;6.92;;;;;;;21.80;77.16;100563.83;1553832;89;28523;-77
2021/06/25 00:28:09;;;;;;;11.22;7.40;;;;;;;21.78;77.10;100561.38;1594210;89;25955;-77
2021/06/25 00:30:36;;;;;;;10.88;7.20;;;;;;;21.73;77.28;100562.69;1594997;89;25807;-77
2021/06/25 00:33:03;;;;;;;11.55;7.47;;;;;;;21.70;77.39;100562.39;1615630;88;26096;-77
2021/06/25 00:35:31;;;;;;;17.05;7.85;;;;;;;21.69;77.40;100559.37;1573731;89;25804;-77
2021/06/25 00:37:58;;;;;;;13.53;6.83;;;;;;;21.70;77.61;100565.12;1594754;89;27455;-77
2021/06/25 00:40:25;;;;;;;13.40;6.83;;;;;;;21.69;77.52;100568.91;1595029;89;25758;-78
2021/06/25 00:42:52;;;;;;;17.23;6.28;;;;;;;21.68;77.43;100563.20;1615906;88;26565;-77
2021/06/25 00:45:20;;;;;;;11.35;5.58;;;;;;;21.66;77.43;100555.82;1605637;87;25888;-78
2021/06/25 00:47:49;;;;;;;16.45;5.85;;;;;;;21.68;77.35;100548.20;1610983;87;25923;-77
2021/06/25 00:50:21;;;;;;;11.97;6.03;;;;;;;21.68;77.43;100535.94;1633059;87;27661;-78
2021/06/25 00:52:52;;;;;;;9.98;6.05;;;;;;;21.62;77.25;100524.15;1613498;87;25938;-77
2021/06/25 00:55:20;;;;;;;13.28;6.28;;;;;;;21.57;77.21;100509.67;1613348;87;25829;-77
2021/06/25 00:57:47;;;;;;;13.15;6.33;;;;;;;21.56;77.27;100495.75;1611086;87;25625;-77
2021/06/25 01:00:16;;;;;;;9.08;5.85;;;;;;;21.53;77.37;100481.56;1635882;87;25380;-78
2021/06/25 01:02:44;;;;;;;10.20;6.00;;;;;;;;;;1613234;87;28203;-77
2021/06/25 01:05:13;;;;;;;12.55;6.08;;;;;;;21.43;77.49;100443.87;1614089;87;25793;-76
2021/06/25 01:07:40;;;;;;;10.48;6.42;;;;;;;21.41;77.72;100426.43;1613790;87;25768;-76
2021/06/25 01:10:11;;;;;;;12.35;5.97;;;;;;;21.41;77.75;100416.06;1633087;87;25861;-77
2021/06/25 01:12:44;;;;;;;11.97;5.90;;;;;;;21.40;77.88;100407.09;1592680;87;26567;-76
2021/06/25 01:15:13;;;;;;;8.50;5.83;;;;;;;21.33;77.76;100392.86;1624173;87;28083;-77
2021/06/25 01:17:43;;;;;;;12.45;7.03;;;;;;;21.17;77.85;100398.47;1613924;87;26032;-77
2021/06/25 01:20:15;;;;;;;7.97;5.80;;;;;;;21.07;78.25;100391.02;1633316;87;25931;-77
2021/06/25 01:22:42;;;;;;;11.10;6.62;;;;;;;21.07;78.54;100395.11;1613630;87;26147;-77
2021/06/25 01:25:26;;;;;;;11.03;7.62;;;;;;;21.09;78.75;100403.01;1636050;87;25793;-76
2021/06/25 01:28:11;;;;;;;10.88;6.80;;;;;;;21.12;78.75;100399.25;1592814;87;27529;-77
2021/06/25 01:30:45;;;;;;;11.08;6.40;;;;;;;21.11;78.76;100404.40;1635655;87;25818;-77
2021/06/25 01:33:16;;;;;;;8.20;6.50;;;;;;;21.01;78.71;100436.14;1614122;87;26450;-77
2021/06/25 01:35:43;;;;;;;11.38;6.30;;;;;;;20.91;79.01;100468.20;1592468;87;26010;-77
2021/06/25 01:38:13;;;;;;;17.23;6.58;;;;;;;20.81;79.78;100483.05;1633019;87;25814;-77
2021/06/25 01:40:42;;;;;;;10.80;7.20;;;;;;;20.73;79.66;100484.87;1636209;87;28173;-77
2021/06/25 01:43:12;;;;;;;14.25;7.35;;;;;;;20.68;80.02;100476.11;1632270;87;26202;-77
2021/06/25 01:45:41;;;;;;;11.75;7.50;;;;;;;20.68;80.16;100463.86;1591952;87;25822;-77
2021/06/25 01:48:10;;;;;;;14.80;6.95;;;;;;;20.73;80.30;100465.30;1602104;88;25862;-77
2021/06/25 01:50:41;;;;;;;13.60;7.47;;;;;;;20.75;80.38;100477.27;1593702;88;25901;-76
2021/06/25 01:53:12;;;;;;;16.55;7.95;;;;;;;20.73;80.38;100482.98;1576106;88;27597;-77
2021/06/25 01:55:40;;;;;;;15.45;7.58;;;;;;;20.73;80.46;100491.69;1596783;88;26443;-77
2021/06/25 01:58:17;;;;;;;10.90;7.22;;;;;;;20.69;80.88;100491.91;1576756;87;25977;-77
2021/06/25 02:00:50;;;;;;;16.02;8.03;;;;;;;20.65;80.79;100480.73;1554232;88;26247;-77
2021/06/25 02:03:17;;;;;;;15.00;8.55;;;;;;;20.67;80.90;100481.30;1589415;88;25895;-77
2021/06/25 02:05:44;;;;;;;16.55;8.95;;;;;;;20.71;80.93;100475.62;1611004;88;28289;-77
2021/06/25 02:08:11;;;;;;;14.53;7.72;;;;;;;20.75;80.79;100474.55;1560698;88;25414;-77
2021/06/25 02:10:38;;;;;;;11.57;7.80;;;;;;;20.79;80.78;100483.84;1541157;92;25907;-77
2021/06/25 02:13:05;;;;;;;13.80;8.60;;;;;;;20.75;80.67;100489.53;1552979;91;26182;-77
2021/06/25 02:15:32;;;;;;;16.45;9.78;;;;;;;20.69;80.81;100494.64;1583379;89;25772;-78
2021/06/25 02:18:00;;;;;;;15.63;9.75;;;;;;;20.68;80.88;100508.78;1571202;89;28096;-77
2021/06/25 02:20:27;;;;;;;16.57;9.88;;;;;;;20.63;81.01;100510.10;1571416;89;25796;-76
2021/06/25 02:22:54;;;;;;;18.35;11.12;;;;;;;20.64;81.26;100504.09;1571123;89;25829;-77
2021/06/25 02:25:21;;;;;;;21.85;10.80;;;;;;;20.64;81.25;100521.25;1594312;89;25811;-77
2021/06/25 02:27:48;;;;;;;17.17;11.73;;;;;;;20.65;81.32;100522.91;1549913;89;25809;-77
2021/06/25 02:30:17;;;;;;;19.67;10.85;;;;;;;20.69;81.39;100518.61;1571393;89;28270;-77
2021/06/25 02:32:46;;;;;;;17.77;11.10;;;;;;;20.70;81.24;100517.51;1570700;89;26582;-77
2021/06/25 02:35:15;;;;;;;18.37;10.53;;;;;;;20.72;81.41;100518.08;1594355;89;26520;-76
2021/06/25 02:37:43;;;;;;;20.75;11.18;;;;;;;20.72;81.23;100513.20;1582987;88;25900;-77
2021/06/25 02:40:13;;;;;;;17.48;10.82;;;;;;;20.71;81.34;100502.84;1604619;88;26402;-77
2021/06/25 02:42:40;;;;;;;19.80;11.30;;;;;;;20.70;81.26;100492.19;1649304;86;27597;-77
2021/06/25 02:45:08;;;;;;;24.63;14.65;;;;;;;20.70;81.29;100494.37;1588943;90;26202;-76
2021/06/25 02:47:36;;;;;;;31.20;18.48;;;;;;;20.70;81.37;100503.06;1551698;91;25850;-77
2021/06/25 02:50:07;;;;;;;24.30;16.55;;;;;;;20.73;81.48;100505.30;1542151;91;26279;-77
2021/06/25 02:52:35;;;;;;;;;;;;;;;20.75;81.43;100500.41;1564603;91;26567;-76
2021/06/25 02:55:02;;;;;;;21.05;14.00;;;;;;;20.75;81.44;100493.61;1541981;91;28566;-77
2021/06/25 02:57:29;;;;;;;24.82;12.73;;;;;;;20.74;81.22;100501.51;1512109;90;26552;-77
2021/06/25 02:59:56;;;;;;;18.30;13.10;;;;;;;20.72;81.03;100505.83;1562421;90;25953;-77
2021/06/25 03:02:23;;;;;;;25.48;13.65;;;;;;;20.70;80.99;100506.62;1578851;88;26120;-76
2021/06/25 03:04:50;;;;;;;17.10;10.90;;;;;;;20.71;80.93;100500.11;1562403;90;25795;-77
2021/06/25 03:07:17;;;;;;;21.82;12.63;;;;;;;20.71;80.96;100511.00;1520449;90;28278;-77
2021/06/25 03:09:44;;;;;;;18.42;12.15;;;;;;;20.74;81.11;100516.48;1545790;90;25881;-77
2021/06/25 03:12:11;;;;;;;15.72;12.25;;;;;;;20.73;80.96;100513.46;1576314;90;26003;-76
2021/06/25 03:14:41;;;;;;;16.77;12.20;;;;;;;20.75;81.18;100518.94;1565426;90;25949;-78
2021/06/25 03:17:09;;;;;;;14.13;12.23;;;;;;;20.76;81.13;100512.97;1566367;90;25826;-77
2021/06/25 03:19:36;;;;;;;14.65;11.33;;;;;;;20.78;81.41;100514.89;1566646;90;27658;-77
2021/06/25 03:22:05;;;;;;;12.95;10.90;;;;;;;20.76;81.27;100512.97;1584338;88;26042;-76
2021/06/25 03:24:34;;;;;;;17.55;11.00;;;;;;;20.66;81.30;100512.30;1554820;90;25926;-77
2021/06/25 03:27:01;;;;;;;15.45;12.20;;;;;;;20.57;81.38;100514.38;1546844;90;26182;-77
2021/06/25 03:29:28;;;;;;;21.87;17.05;;;;;;;20.52;81.67;100521.11;1557530;91;25952;-77
2021/06/25 03:31:55;;;;;;;28.55;22.22;;;;;;;20.51;82.52;100527.08;1542114;91;27683;-77
2021/06/25 03:34:22;;;;;;;28.75;23.38;;;;;;;20.43;83.26;100533.50;1522597;91;26043;-78
2021/06/25 03:36:50;;;;;;;36.73;26.15;;;;;;;20.37;83.30;100538.06;1504216;91;26614;-77
2021/06/25 03:39:17;;;;;;;40.25;27.90;;;;;;;20.37;83.65;100543.51;1542625;91;26686;-76
2021/06/25 03:41:45;;;;;;;42.20;28.32;;;;;;;20.36;83.93;100541.84;1562751;91;25318;-76
2021/06/25 03:44:12;;;;;;;39.40;29.87;;;;;;;20.38;84.20;100538.89;1543868;90;27585;-77
2021/06/25 03:46:39;;;;;;;36.35;28.27;;;;;;;20.41;84.37;100539.73;1563110;90;25849;-76
2021/06/25 03:49:07;;;;;;;40.92;31.00;;;;;;;20.45;84.37;100543.59;1570695;90;25850;-76
2021/06/25 03:51:34;;;;;;;45.30;32.55;;;;;;;20.49;84.49;100542.01;1591479;90;26545;-77
2021/06/25 03:54:02;;;;;;;46.73;35.10;;;;;;;20.58;84.42;100530.97;1566610;90;25943;-77
2021/06/25 03:56:29;;;;;;;43.83;34.95;;;;;;;20.65;84.33;100534.33;1528064;90;27618;-77
2021/06/25 03:58:56;;;;;;;43.17;34.80;;;;;;;20.72;84.25;100522.72;1547056;90;26189;-76
2021/06/25 04:01:24;;;;;;;42.25;31.77;;;;;;;20.75;84.08;100516.22;1591426;90;25814;-76
2021/06/25 04:03:51;;;;;;;43.08;32.63;;;;;;;20.73;84.14;100517.02;1566447;90;26072;-77
2021/06/25 04:06:18;;;;;;;42.03;31.25;;;;;;;20.74;84.14;100511.04;1527646;90;25875;-76
2021/06/25 04:08:48;;;;;;;40.33;30.15;;;;;;;20.71;84.11;100508.81;1570048;88;27571;-76
2021/06/25 04:11:14;;;;;;;39.18;30.57;;;;;;;20.70;84.23;100503.06;1582812;88;25880;-77
2021/06/25 04:13:41;;;;;;;37.45;28.47;;;;;;;20.66;84.18;100505.49;1565518;89;25933;-76
2021/06/25 04:16:08;;;;;;;38.42;28.05;;;;;;;20.62;84.33;100498.09;1527693;90;26168;-77
2021/06/25 04:18:36;;;;;;;30.57;25.10;;;;;;;20.63;84.50;100492.94;1582134;90;26015;-77
2021/06/25 04:21:04;;;;;;;33.02;25.30;;;;;;;20.65;84.56;100479.90;1582545;90;28486;-76
2021/06/25 04:23:31;;;;;;;27.58;23.25;;;;;;;20.66;84.70;100468.74;1562183;90;25799;-75
2021/06/25 04:25:59;;;;;;;37.33;23.80;;;;;;;20.65;84.77;100468.48;1562736;90;25905;-76
2021/06/25 04:28:26;;;;;;;31.17;23.15;;;;;;;20.64;84.83;100455.10;1562637;90;25871;-77
2021/06/25 04:30:53;;;;;;;26.80;21.97;;;;;;;20.61;84.96;100455.10;1585836;90;25916;-76
2021/06/25 04:33:21;;;;;;;27.87;22.95;;;;;;;20.60;84.98;100453.44;1562091;90;28228;-77
2021/06/25 04:35:50;;;;;;;29.72;24.57;;;;;;;20.60;85.09;100451.25;1523708;90;25986;-76
2021/06/25 04:38:17;;;;;;;34.85;26.17;;;;;;;20.58;85.37;100450.69;1562883;90;25914;-76
2021/06/25 04:40:45;;;;;;;34.10;25.92;;;;;;;20.56;85.25;100466.45;1585528;90;25859;-77
2021/06/25 04:43:15;;;;;;;35.15;26.00;;;;;;;20.59;85.55;100471.39;1562527;90;25341;-77
2021/06/25 04:45:44;;;;;;;32.42;28.02;;;;;;;20.64;85.62;100480.42;1524965;90;27654;-77
2021/06/25 04:48:14;;;;;;;36.48;28.32;;;;;;;20.72;85.66;100503.67;1553845;91;25806;-76
2021/06/25 04:50:42;;;;;;;37.67;29.07;;;;;;;20.76;85.62;100517.84;1573164;91;25806;-76
2021/06/25 04:53:10;;;;;;;35.83;28.02;;;;;;;20.78;85.56;100523.86;1553488;91;25913;-77
2021/06/25 04:55:43;;;;;;;35.92;28.62;;;;;;;20.82;85.57;100531.53;1552730;91;25946;-77
2021/06/25 04:58:16;;;;;;;34.60;27.95;;;;;;;20.85;85.57;100541.36;1534726;91;28127;-77
2021/06/25 05:00:46;;;;;;;40.28;29.60;;;;;;;20.88;85.45;100540.03;1572960;91;25884;-76
2021/06/25 05:03:13;;;;;;;35.78;31.05;;;;;;;20.91;85.49;100544.98;1553761;91;25924;-76
2021/06/25 05:05:46;;;;;;;38.20;31.10;;;;;;;20.96;85.36;100544.48;1553863;91;25976;-76
2021/06/25 05:08:11;;;;;;;40.67;31.93;;;;;;;21.00;85.39;100542.89;1554112;91;26270;-76
2021/06/25 05:10:39;;;;;;;42.48;32.28;;;;;;;21.01;85.25;100532.83;1573115;91;27580;-76
2021/06/25 05:13:07;;;;;;;44.93;33.67;;;;;;;21.03;85.03;100512.46;1553419;91;25852;-76
2021/06/25 05:15:34;;;;;;;43.10;33.38;;;;;;;21.08;85.21;100501.63;1539281;90;26541;-77
2021/06/25 05:18:17;;;;;;;48.73;34.75;;;;;;;21.10;85.20;100493.19;1566413;90;26209;-76
2021/06/25 05:20:45;;;;;;;46.55;38.08;;;;;;;21.08;85.31;100500.80;1587970;90;25299;-76
2021/06/25 05:23:14;;;;;;;46.73;37.15;;;;;;;21.05;85.45;100519.83;1565854;90;28182;-76
2021/06/25 05:25:42;;;;;;;50.15;39.20;;;;;;;21.06;85.56;100540.56;1546127;90;25911;-77
2021/06/25 05:28:10;;;;;;;55.85;42.17;;;;;;;21.08;85.53;100553.38;1566152;90;26532;-76
2021/06/25 05:30:38;;;;;;;58.33;43.33;;;;;;;21.11;85.37;100556.10;1587453;90;26081;-76
2021/06/25 05:33:06;;;;;;;53.55;44.40;;;;;;;21.17;85.45;100559.19;1565990;90;26339;-77
2021/06/25 05:35:34;;;;;;;53.75;42.53;;;;;;;21.20;85.12;100553.20;1555847;90;27729;-77
2021/06/25 05:38:09;;;;;;;56.90;43.08;;;;;;;21.22;84.93;100549.16;1566224;90;25894;-76
2021/06/25 05:40:37;;;;;;;56.13;42.60;;;;;;;21.26;84.84;100554.90;1587682;90;25861;-77
2021/06/25 05:43:05;;;;;;;52.05;41.35;;;;;;;21.31;85.03;100555.78;1546434;90;25921;-77
2021/06/25 05:45:34;;;;;;;51.53;42.05;;;;;;;21.37;85.09;100552.55;1567004;88;25899;-76
2021/06/25 05:48:02;;;;;;;50.23;40.95;;;;;;;21.46;84.93;100548.28;1614437;88;28288;-76
2021/06/25 05:50:30;;;;;;;53.70;42.62;;;;;;;21.52;84.51;100548.61;1656612;86;25770;-76
2021/06/25 05:52:57;;;;;;;56.77;40.90;;;;;;;21.56;84.49;100555.71;1599712;86;25939;-76
2021/06/25 05:55:25;;;;;;;52.40;40.38;;;;;;;21.60;84.16;100563.11;1594683;86;26052;-75
2021/06/25 05:57:52;;;;;;;60.45;42.33;;;;;;;21.67;84.13;100554.19;1656846;86;25885;-76
2021/06/25 06:00:19;;;;;;;60.17;43.58;;;;;;;21.79;84.34;100550.73;1656445;86;27529;-77
2021/06/25 06:02:46;;;;;;;51.08;38.85;;;;;;;21.90;84.71;100551.66;1617243;86;25839;-75
2021/06/25 06:05:14;;;;;;;54.67;41.48;;;;;;;21.98;83.15;100553.92;1594656;86;26629;-76
2021/06/25 06:07:42;;;;;;;49.33;39.35;;;;;;;22.03;83.27;100548.47;1656659;86;26388;-77
2021/06/25 06:10:10;;;;;;;49.75;38.92;;;;;;;22.06;83.17;100539.24;1656701;86;25807;-77
2021/06/25 06:12:38;;;;;;;47.05;37.83;;;;;;;22.10;82.90;100528.61;1599876;86;27550;-76
2021/06/25 06:15:07;;;;;;;44.03;36.30;;;;;;;22.16;82.89;100528.92;1593122;86;26061;-77
2021/06/25 06:17:40;;;;;;;41.75;31.85;;;;;;;22.17;82.64;100527.84;1618573;88;25806;-76
2021/06/25 06:20:11;;;;;;;36.17;29.02;;;;;;;22.17;81.88;100534.67;1618343;88;25838;-76
2021/06/25 06:33:44;;;;;;;42.50;32.95;;;;;;;22.17;81.75;100542.85;1608123;88;25991;-77
2021/06/25 06:36:25;;;;;;;44.65;31.82;;;;;;;22.17;81.27;100550.50;1606461;87;25937;-77
2021/06/25 06:38:51;;;;;;;40.03;30.23;;;;;;;22.22;81.47;100544.23;1617315;86;28406;-77
2021/06/25 06:41:18;;;;;;;39.65;32.20;;;;;;;22.23;81.49;100541.25;1617848;88;25803;-77
2021/06/25 06:43:47;;;;;;;41.75;32.95;;;;;;;22.21;80.68;100554.88;1628657;87;25887;-76
2021/06/25 06:46:15;;;;;;;37.75;29.67;;;;;;;22.18;80.99;100557.59;1606019;87;25935;-76
2021/06/25 06:48:45;;;;;;;34.15;29.10;;;;;;;22.17;80.41;100560.05;1625393;88;25921;-76
2021/06/25 06:51:12;;;;;;;35.20;29.40;;;;;;;22.11;80.22;100563.80;1625741;88;28032;-77
2021/06/25 06:53:43;;;;;;;35.73;28.47;;;;;;;22.12;80.28;100565.47;1556478;88;25828;-76
2021/06/25 06:56:11;;;;;;;35.10;28.15;;;;;;;22.14;80.27;100566.55;1576713;89;25959;-76
2021/06/25 06:58:40;;;;;;;37.48;30.50;;;;;;;22.19;80.19;100560.61;1606452;89;25812;-76
2021/06/25 07:01:08;;;;;;;37.30;30.32;;;;;;;22.21;80.00;100572.08;1606274;88;25769;-77
2021/06/25 07:03:35;;;;;;;36.55;30.75;;;;;;;22.19;79.69;100582.97;1566897;88;28319;-77
2021/06/25 07:06:04;;;;;;;37.08;29.63;;;;;;;22.22;80.14;100586.52;1576185;89;25831;-77
2021/06/25 07:08:32;;;;;;;35.23;29.23;;;;;;;22.26;79.73;100585.73;1639712;86;26687;-76
2021/06/25 07:11:00;;;;;;;31.17;27.55;;;;;;;22.28;79.34;100586.86;1631240;87;26319;-76
2021/06/25 07:13:28;;;;;;;34.40;26.52;;;;;;;22.33;80.02;100588.77;1604441;86;25720;-76
2021/06/25 07:15:56;;;;;;;35.40;29.35;;;;;;;22.39;79.92;100593.20;1591444;86;27460;-77
2021/06/25 07:18:26;;;;;;;36.85;30.20;;;;;;;22.42;79.21;100597.57;1628637;86;26393;-77
2021/06/25 07:20:53;;;;;;;37.10;31.97;;;;;;;22.34;78.30;100599.98;1631432;87;25803;-77
2021/06/25 07:23:20;;;;;;;37.50;31.40;;;;;;;22.28;78.20;100600.50;1633666;87;25808;-77
2021/06/25 07:25:47;;;;;;;39.20;32.05;;;;;;;22.26;77.51;100606.20;1577830;88;26319;-76
2021/06/25 07:28:14;;;;;;;39.27;31.35;;;;;;;22.21;77.89;100617.64;1620101;88;27588;-77
2021/06/25 07:30:42;;;;;;;36.65;31.02;;;;;;;22.26;77.87;100622.58;1646523;86;25947;-77
2021/06/25 07:33:09;;;;;;;38.33;31.70;;;;;;;22.32;78.00;100617.16;1623987;88;25410;-77
2021/06/25 07:35:36;;;;;;;35.73;31.42;;;;;;;22.40;78.55;100628.41;1646339;86;25864;-77
2021/06/25 07:38:03;;;;;;;35.78;28.75;;;;;;;22.47;78.01;100621.34;1619838;88;26563;-76
2021/06/25 07:40:30;;;;;;;34.88;28.27;;;;;;;22.51;77.89;100619.20;1619948;88;27602;-76
2021/06/25 07:42:57;;;;;;;32.80;26.75;;;;;;;22.54;77.27;100630.94;1602689;88;25794;-76
2021/06/25 07:45:24;;;;;;;31.68;27.52;;;;;;;22.54;76.48;100628.77;1624306;88;26498;-76
2021/06/25 07:47:51;;;;;;;28.67;24.87;;;;;;;22.51;76.09;100637.48;1619846;88;25965;-76
2021/06/25 07:50:20;;;;;;;30.62;22.82;;;;;;;22.50;75.91;100628.99;1620023;88;26011;-77
2021/06/25 07:52:47;;;;;;;27.13;22.02;;;;;;;22.44;75.70;100636.87;1646504;86;27557;-75
2021/06/25 07:55:15;;;;;;;26.90;22.22;;;;;;;22.42;76.01;100624.87;1624681;88;25775;-77
2021/06/25 07:57:43;;;;;;;28.20;22.52;;;;;;;22.47;75.60;100618.62;1646867;86;25878;-77
2021/06/25 08:00:13;;;;;;;28.32;22.45;;;;;;;22.53;75.51;100618.92;1620218;88;26542;-76
2021/06/25 08:02:44;;;;;;;28.83;24.45;;;;;;;22.59;76.06;100613.26;1624907;86;25884;-76
2021/06/25 08:05:11;;;;;;;30.05;23.45;;;;;;;22.61;75.42;100617.91;1624461;88;28168;-76
2021/06/25 08:07:40;;;;;;;27.50;24.47;;;;;;;22.59;75.16;100618.72;1620018;88;26365;-75
2021/06/25 08:10:08;;;;;;;29.55;23.77;;;;;;;22.65;75.44;100620.38;1620278;88;25742;-76
2021/06/25 08:12:35;;;;;;;31.73;25.62;;;;;;;22.69;75.11;100620.13;1582258;88;26188;-76
2021/06/25 08:15:04;;;;;;;30.43;26.07;;;;;;;22.74;74.53;100626.98;1624524;88;25780;-76
2021/06/25 08:17:31;;;;;;;33.05;26.15;;;;;;;22.79;74.82;100623.47;1625459;88;27488;-76
2021/06/25 08:19:58;;;;;;;33.25;25.20;;;;;;;22.88;75.05;100619.14;1625931;88;26606;-77
2021/06/25 08:22:25;;;;;;;30.25;24.82;;;;;;;22.86;73.60;100619.39;1586294;88;26506;-76
2021/06/25 08:24:53;;;;;;;31.80;25.12;;;;;;;22.65;73.35;100620.92;1538443;90;25940;-76
2021/06/25 08:27:21;;;;;;;30.27;25.35;;;;;;;22.52;73.63;100617.30;1577505;90;26249;-77
2021/06/25 08:29:48;;;;;;;27.73;24.67;;;;;;;22.51;74.17;100613.73;1577766;89;27510;-77
2021/06/25 08:32:15;;;;;;;29.65;24.45;;;;;;;22.56;74.04;100606.92;1566001;90;25887;-77
2021/06/25 08:34:42;;;;;;;33.90;26.52;;;;;;;22.60;74.11;100612.72;1605060;89;25933;-77
2021/06/25 08:37:09;;;;;;;31.42;26.15;;;;;;;22.63;73.85;100605.34;1587355;90;25824;-77
2021/06/25 08:39:38;;;;;;;34.15;27.50;;;;;;;22.61;73.43;100602.06;1587625;90;26499;-75
2021/06/25 08:42:06;;;;;;;33.73;26.45;;;;;;;22.55;73.52;100609.92;1565918;90;27519;-77
2021/06/25 08:44:38;;;;;;;31.93;26.37;;;;;;;22.58;73.94;100602.02;1604784;89;26620;-77
2021/06/25 08:47:06;;;;;;;34.80;27.87;;;;;;;22.62;73.68;100621.47;1603466;89;25822;-77
2021/06/25 08:49:37;;;;;;;33.65;27.60;;;;;;;22.53;73.10;100624.38;1567369;90;25659;-76
2021/06/25 08:52:05;;;;;;;32.93;27.50;;;;;;;22.54;73.78;100628.77;1522500;90;25927;-77
2021/06/25 08:54:34;;;;;;;37.33;26.23;;;;;;;22.62;74.08;100622.83;1550900;90;27331;-76
2021/06/25 08:57:07;;;;;;;35.58;27.87;;;;;;;22.70;73.01;100621.78;1520934;91;25866;-77
2021/06/25 08:59:35;;;;;;;31.35;24.85;;;;;;;22.75;74.00;100628.62;1543142;91;26327;-78
2021/06/25 09:02:03;;;;;;;31.17;24.95;;;;;;;22.82;72.82;100627.84;1552048;89;25882;-77
2021/06/25 09:04:33;;;;;;;28.92;23.07;;;;;;;22.84;72.96;100631.66;1591807;89;25329;-76
2021/06/25 09:07:02;;;;;;;31.20;23.85;;;;;;;22.83;72.96;100625.40;1608837;88;29260;-76
2021/06/25 09:09:46;;;;;;;32.67;25.70;;;;;;;22.79;73.12;100627.02;1591530;90;25894;-77
2021/06/25 09:12:23;;;;;;;29.02;23.75;;;;;;;22.81;72.69;100626.22;1608541;88;26827;-76
2021/06/25 09:15:14;;;;;;;31.55;25.43;;;;;;;22.82;72.54;100627.84;1591620;90;25830;-76
2021/06/25 09:18:02;;;;;;;28.30;23.85;;;;;;;22.90;72.64;100632.78;1612899;88;25889;-77
2021/06/25 09:20:42;;;;;;;27.93;22.77;;;;;;;22.93;72.37;100622.70;1593434;89;28160;-77
2021/06/25 09:23:20;;;;;;;34.88;25.62;;;;;;;23.04;72.30;100620.83;1550658;89;25881;-77
2021/06/25 09:25:59;;;;;;;31.10;25.82;;;;;;;23.08;72.39;100623.30;1589480;88;26009;-76
2021/06/25 09:28:31;;;;;;;29.70;24.15;;;;;;;23.13;72.43;100628.79;1612619;88;25921;-77
2021/06/25 09:30:59;;;;;;;27.62;24.43;;;;;;;23.19;72.02;100627.71;1628439;87;25888;-77
2021/06/25 09:33:26;;;;;;;30.65;25.27;;;;;;;23.18;72.34;100624.69;1627987;86;27609;-77
2021/06/25 09:35:56;;;;;;;29.90;25.30;;;;;;;23.13;71.45;100626.06;1651297;86;25743;-76
2021/06/25 09:38:40;;;;;;;32.85;25.75;;;;;;;23.13;71.48;100630.16;1652204;86;26326;-76
2021/06/25 09:41:21;;;;;;;31.52;26.15;;;;;;;23.10;71.73;100633.41;1650509;86;26446;-75
2021/06/25 09:44:04;;;;;;;31.55;26.48;;;;;;;23.15;71.55;100634.81;1628279;87;25899;-78
2021/06/25 09:46:41;;;;;;;29.12;25.85;;;;;;;23.21;71.70;100631.53;1620777;87;27501;-77
2021/06/25 09:49:14;;;;;;;31.55;26.97;;;;;;;23.30;71.63;100625.83;1651627;86;25920;-77
2021/06/25 09:51:55;;;;;;;29.80;25.43;;;;;;;23.35;71.49;100625.31;1628995;87;25762;-77
2021/06/25 09:54:22;;;;;;;;;;;;;;;23.28;70.71;100632.94;1631879;86;25761;-76
2021/06/25 09:56:57;;;;;;;30.90;27.07;;;;;;;23.22;70.69;100635.92;1621026;88;25812;-77
2021/06/25 10:02:26;;;;;;;33.70;30.02;;;;;;;23.03;70.59;100639.12;1646321;86;26081;-75
2021/06/25 10:05:05;;;;;;;34.25;29.95;;;;;;;22.95;70.74;100636.09;1613243;88;25542;-77
2021/06/25 10:07:32;;;;;;;32.73;29.20;;;;;;;22.99;71.24;100632.55;1622426;86;26248;-77
2021/06/25 10:10:07;;;;;;;32.10;28.00;;;;;;;23.06;70.95;100635.05;1629479;87;26138;-79
2021/06/25 10:12:38;;;;;;;34.35;28.17;;;;;;;23.06;71.02;100638.31;1620592;87;27645;-79
2021/06/25 10:15:06;;;;;;;;;;;;;;;23.11;71.08;100637.80;1631562;86;25751;-78
2021/06/25 10:17:35;;;;;;;34.27;27.48;;;;;;;23.08;70.76;100636.96;1600174;88;25764;-77
2021/06/25 10:20:07;;;;;;;30.68;27.40;;;;;;;23.14;71.97;100636.45;1599851;88;25849;-78
2021/06/25 10:22:35;;;;;;;32.60;26.95;;;;;;;23.14;70.60;100632.36;1577314;88;25925;-78
2021/06/25 10:25:06;;;;;;;32.73;27.65;;;;;;;23.08;70.73;100621.94;1621173;88;28241;-76
2021/06/25 10:27:34;;;;;;;;;;;;;;;23.08;71.12;100613.73;1601308;88;26671;-78
2021/06/25 10:30:05;;;;;;;35.08;27.40;;;;;;;23.12;70.61;100607.21;1599967;88;26573;-78
2021/06/25 10:32:37;;;;;;;34.50;27.82;;;;;;;23.11;70.98;100593.25;1598850;88;26105;-76
2021/06/25 10:35:11;;;;;;;35.15;28.83;;;;;;;23.12;71.38;100595.70;1598944;88;25745;-78
2021/06/25 10:37:41;;;;;;;40.85;31.93;;;;;;;23.16;70.75;100599.55;1597691;87;27374;-79
2021/06/25 10:40:26;;;;;;;34.33;29.75;;;;;;;23.15;71.26;100599.28;1552592;88;26487;-77
2021/06/25 10:42:56;;;;;;;38.45;31.00;;;;;;;23.16;71.45;100600.91;1598969;88;25878;-77
2021/06/25 10:45:42;;;;;;;35.38;29.23;;;;;;;23.19;70.91;100605.02;1620579;88;26365;-77
2021/06/25 10:48:09;;;;;;;35.50;30.08;;;;;;;23.18;70.31;100605.56;1577171;87;26644;-77
2021/06/25 10:50:37;;;;;;;37.65;30.52;;;;;;;23.14;71.14;100606.39;1617870;88;28162;-78
2021/06/25 10:53:17;;;;;;;37.05;29.77;;;;;;;23.17;71.36;100608.03;1620355;87;26551;-79
2021/06/25 10:56:02;;;;;;;37.33;28.67;;;;;;;23.21;71.14;100609.67;1620692;88;25908;-77
2021/06/25 10:58:31;;;;;;;34.35;28.38;;;;;;;23.19;70.05;100605.84;1575072;88;25972;-77
2021/06/25 11:01:00;;;;;;;35.45;28.55;;;;;;;23.19;69.70;100608.58;1618041;88;26553;-77
2021/06/25 11:03:43;;;;;;;32.45;27.02;;;;;;;23.23;71.13;100612.95;1640027;87;27596;-76
2021/06/25 11:06:38;;;;;;;33.02;27.27;;;;;;;23.29;70.33;100607.23;1580339;90;25865;-77
2021/06/25 11:09:07;;;;;;;35.10;27.45;;;;;;;23.27;69.88;100609.41;1613250;88;25885;-78
2021/06/25 11:11:34;;;;;;;36.15;28.98;;;;;;;23.29;70.12;100611.33;1591549;89;25893;-77
2021/06/25 11:14:02;;;;;;;30.30;25.37;;;;;;;23.34;70.63;100629.69;1613579;88;25797;-77
2021/06/25 11:16:29;;;;;;;34.00;27.67;;;;;;;23.33;68.69;100630.23;1613171;88;27604;-77
2021/06/25 11:18:59;;;;;;;36.42;28.38;;;;;;;23.24;68.53;100635.94;1571172;89;25464;-77
2021/06/25 11:21:43;;;;;;;34.50;26.90;;;;;;;23.17;68.96;100635.90;1571387;89;25832;-78
2021/06/25 11:24:11;;;;;;;33.02;26.62;;;;;;;23.25;69.26;100629.36;1613161;88;26504;-76
2021/06/25 11:26:55;;;;;;;31.37;24.52;;;;;;;23.29;69.86;100625.56;1594183;89;25864;-77
2021/06/25 11:29:21;;;;;;;32.55;24.50;;;;;;;23.32;67.74;100628.58;1613173;88;28219;-77
2021/06/25 11:31:50;;;;;;;34.40;27.50;;;;;;;23.33;69.01;100617.93;1591096;89;26383;-77
2021/06/25 11:34:23;;;;;;;29.65;23.02;;;;;;;23.48;69.93;100616.59;1613335;88;25377;-77
2021/06/25 11:36:52;;;;;;;29.75;23.83;;;;;;;23.62;67.97;100634.13;1591724;89;25876;-76